M/V Grande Caribe — WCX4495 — position and weather

sailwx.info

Track history (hours):
 
Tides and Currents Weather Stations Pressure Air Temp Water Temp Dewpoint Dewpoint Depression Visibility Wind Speed Wind Dir Waves Ship Positions

M/V Grande Caribe

More information available from US FCC via Universal Licensing System and Coast Guard Vessel Documentation Center.

Last reported at 2014-Aug-18 13:33 UTC. Time now 2014-Aug-28 01:22 UTC.
Position N 45°43' W 084°09'.
Warning: this ship's position is 9 days out of date.

Length 55 m; draft 2.1 m.

Type: Ship. MMSI: 369023000.

Date/timePositionNaut miles runAvg speedWind from/ knotsBaromVisibWave heightAir tempDewpointWater temp
2014-Aug-18 13:33N 45°43' W 084°09'1010.2
2014-Aug-18 12:33N 45°49' W 084°20'10 9.9
2014-Aug-18 11:33N 45°51' W 084°34'4 2.1
2014-Aug-18 09:33N 45°51' W 084°40'2 2.2
2014-Aug-18 08:33N 45°51' W 084°37'0 0.0
2014-Aug-18 07:33N 45°51' W 084°37'0 0.0
2014-Aug-18 06:33N 45°51' W 084°37'0 0.0
2014-Aug-18 05:33N 45°51' W 084°37'0 0.0
2014-Aug-18 04:33N 45°51' W 084°37'0 0.0
2014-Aug-18 03:33N 45°51' W 084°37'0 0.0
2014-Aug-18 02:33N 45°51' W 084°37'0 0.0
2014-Aug-18 01:33N 45°51' W 084°37'0 0.0
2014-Aug-18 00:33N 45°51' W 084°37'0 0.0
2014-Aug-17 18:33N 45°51' W 084°37'0 0.0
2014-Aug-17 17:33N 45°51' W 084°37'0 0.0
2014-Aug-17 16:33N 45°51' W 084°37'0 0.0
2014-Aug-17 15:33N 45°51' W 084°37'0 0.0
2014-Aug-17 14:33N 45°51' W 084°37'0 0.0
2014-Aug-17 13:33N 45°51' W 084°37'0 0.0
2014-Aug-17 12:33N 45°51' W 084°37'4 4.5
2014-Aug-17 11:33N 45°49' W 084°43'10 9.8
2014-Aug-17 10:33N 45°49' W 084°57'9 8.5
2014-Aug-17 09:33N 45°47' W 085°09'10 9.9
2014-Aug-17 08:33N 45°39' W 085°16'1010.1
2014-Aug-17 07:33N 45°31' W 085°24'1010.1
2014-Aug-17 06:33N 45°23' W 085°33'10 9.8
2014-Aug-17 05:33N 45°15' W 085°41'10 9.7
2014-Aug-17 04:33N 45°07' W 085°50'  
2014-Aug-11 01:31N 45°11' W 086°53'1110.7
2014-Aug-11 00:28N 45°21' W 086°45'1010.7
2014-Aug-10 23:33N 45°26' W 086°33'1210.8
2014-Aug-10 22:29N 45°33' W 086°19'1010.7
2014-Aug-10 21:33N 45°38' W 086°08'1010.2
2014-Aug-10 20:32N 45°44' W 085°55'1010.1
2014-Aug-10 19:33N 45°49' W 085°43'10 9.7
2014-Aug-10 18:33N 45°53' W 085°30'1010.2
2014-Aug-10 17:33N 45°52' W 085°16'9 9.3
2014-Aug-10 16:33N 45°51' W 085°03'10 9.8
2014-Aug-10 15:33N 45°49' W 084°49'5 4.2
2014-Aug-10 14:26N 45°52' W 084°43'0 0.0
2014-Aug-10 13:33N 45°52' W 084°43'0 0.0
2014-Aug-10 12:32N 45°52' W 084°43'0 0.0
2014-Aug-10 11:33N 45°52' W 084°43'0 0.2
2014-Aug-10 10:33N 45°52' W 084°43'4 4.4
2014-Aug-10 09:33N 45°51' W 084°37'0 0.0
2014-Aug-10 08:33N 45°51' W 084°37'0 0.0
2014-Aug-10 07:33N 45°51' W 084°37'0 0.0
2014-Aug-10 06:33N 45°51' W 084°37'0 0.0
2014-Aug-10 05:33N 45°51' W 084°37'0 0.0
2014-Aug-10 04:33N 45°51' W 084°37'0 0.0
2014-Aug-10 03:33N 45°51' W 084°37'0 0.0
2014-Aug-10 02:33N 45°51' W 084°37'0 0.0
2014-Aug-10 01:33N 45°51' W 084°37'0 0.0
2014-Aug-10 00:33N 45°51' W 084°37'0 0.0
2014-Aug-09 23:33N 45°51' W 084°37'0 0.0
2014-Aug-09 22:33N 45°51' W 084°37'0 0.0
2014-Aug-09 21:33N 45°51' W 084°37'0 0.0
2014-Aug-09 20:33N 45°51' W 084°37'0 0.0
2014-Aug-09 19:33N 45°51' W 084°37'0 0.0
2014-Aug-09 18:33N 45°51' W 084°37'0 0.0
2014-Aug-09 17:33N 45°51' W 084°37'0 0.0
2014-Aug-09 16:33N 45°51' W 084°37'0 0.0
2014-Aug-09 15:33N 45°51' W 084°37'0 0.0
2014-Aug-09 14:33N 45°51' W 084°37'0 0.2
2014-Aug-09 13:33N 45°51' W 084°37'5 4.8
2014-Aug-09 12:33N 45°52' W 084°43'0 0.0
2014-Aug-09 11:33N 45°52' W 084°43'1 0.9
2014-Aug-09 10:33N 45°52' W 084°42'1010.0
2014-Aug-09 09:33N 45°51' W 084°28'1010.1
2014-Aug-09 08:33N 45°46' W 084°15'1010.2
2014-Aug-09 07:33N 45°40' W 084°03'  
Track history (hours):
 
Tides and Currents Weather Stations Pressure Air Temp Water Temp Dewpoint Dewpoint Depression Visibility Wind Speed Wind Dir Waves Ship Positions

M/V Grande Caribe

More information available from US FCC via Universal Licensing System and Coast Guard Vessel Documentation Center.

Last reported at 2014-Aug-18 13:33 UTC. Time now 2014-Aug-28 01:22 UTC.
Position N 45°43' W 084°09'.
Warning: this ship's position is 9 days out of date.

Length 55 m; draft 2.1 m.

Type: Ship. MMSI: 369023000.

Date/timePositionNaut miles runAvg speedWind from/ knotsBaromVisibWave heightAir tempDewpointWater temp
2014-Aug-18 13:33N 45°43' W 084°09'1010.2
2014-Aug-18 12:33N 45°49' W 084°20'10 9.9
2014-Aug-18 11:33N 45°51' W 084°34'4 2.1
2014-Aug-18 09:33N 45°51' W 084°40'2 2.2
2014-Aug-18 08:33N 45°51' W 084°37'0 0.0
2014-Aug-18 07:33N 45°51' W 084°37'0 0.0
2014-Aug-18 06:33N 45°51' W 084°37'0 0.0
2014-Aug-18 05:33N 45°51' W 084°37'0 0.0
2014-Aug-18 04:33N 45°51' W 084°37'0 0.0
2014-Aug-18 03:33N 45°51' W 084°37'0 0.0
2014-Aug-18 02:33N 45°51' W 084°37'0 0.0
2014-Aug-18 01:33N 45°51' W 084°37'0 0.0
2014-Aug-18 00:33N 45°51' W 084°37'0 0.0
2014-Aug-17 18:33N 45°51' W 084°37'0 0.0
2014-Aug-17 17:33N 45°51' W 084°37'0 0.0
2014-Aug-17 16:33N 45°51' W 084°37'0 0.0
2014-Aug-17 15:33N 45°51' W 084°37'0 0.0
2014-Aug-17 14:33N 45°51' W 084°37'0 0.0
2014-Aug-17 13:33N 45°51' W 084°37'0 0.0
2014-Aug-17 12:33N 45°51' W 084°37'4 4.5
2014-Aug-17 11:33N 45°49' W 084°43'10 9.8
2014-Aug-17 10:33N 45°49' W 084°57'9 8.5
2014-Aug-17 09:33N 45°47' W 085°09'10 9.9
2014-Aug-17 08:33N 45°39' W 085°16'1010.1
2014-Aug-17 07:33N 45°31' W 085°24'1010.1
2014-Aug-17 06:33N 45°23' W 085°33'10 9.8
2014-Aug-17 05:33N 45°15' W 085°41'10 9.7
2014-Aug-17 04:33N 45°07' W 085°50'  
2014-Aug-11 01:31N 45°11' W 086°53'1110.7
2014-Aug-11 00:28N 45°21' W 086°45'1010.7
2014-Aug-10 23:33N 45°26' W 086°33'1210.8
2014-Aug-10 22:29N 45°33' W 086°19'1010.7
2014-Aug-10 21:33N 45°38' W 086°08'1010.2
2014-Aug-10 20:32N 45°44' W 085°55'1010.1
2014-Aug-10 19:33N 45°49' W 085°43'10 9.7
2014-Aug-10 18:33N 45°53' W 085°30'1010.2
2014-Aug-10 17:33N 45°52' W 085°16'9 9.3
2014-Aug-10 16:33N 45°51' W 085°03'10 9.8
2014-Aug-10 15:33N 45°49' W 084°49'5 4.2
2014-Aug-10 14:26N 45°52' W 084°43'0 0.0
2014-Aug-10 13:33N 45°52' W 084°43'0 0.0
2014-Aug-10 12:32N 45°52' W 084°43'0 0.0
2014-Aug-10 11:33N 45°52' W 084°43'0 0.2
2014-Aug-10 10:33N 45°52' W 084°43'4 4.4
2014-Aug-10 09:33N 45°51' W 084°37'0 0.0
2014-Aug-10 08:33N 45°51' W 084°37'0 0.0
2014-Aug-10 07:33N 45°51' W 084°37'0 0.0
2014-Aug-10 06:33N 45°51' W 084°37'0 0.0
2014-Aug-10 05:33N 45°51' W 084°37'0 0.0
2014-Aug-10 04:33N 45°51' W 084°37'0 0.0
2014-Aug-10 03:33N 45°51' W 084°37'0 0.0
2014-Aug-10 02:33N 45°51' W 084°37'0 0.0
2014-Aug-10 01:33N 45°51' W 084°37'0 0.0
2014-Aug-10 00:33N 45°51' W 084°37'0 0.0
2014-Aug-09 23:33N 45°51' W 084°37'0 0.0
2014-Aug-09 22:33N 45°51' W 084°37'0 0.0
2014-Aug-09 21:33N 45°51' W 084°37'0 0.0
2014-Aug-09 20:33N 45°51' W 084°37'0 0.0
2014-Aug-09 19:33N 45°51' W 084°37'0 0.0
2014-Aug-09 18:33N 45°51' W 084°37'0 0.0
2014-Aug-09 17:33N 45°51' W 084°37'0 0.0
2014-Aug-09 16:33N 45°51' W 084°37'0 0.0
2014-Aug-09 15:33N 45°51' W 084°37'0 0.0
2014-Aug-09 14:33N 45°51' W 084°37'0 0.2
2014-Aug-09 13:33N 45°51' W 084°37'5 4.8
2014-Aug-09 12:33N 45°52' W 084°43'0 0.0
2014-Aug-09 11:33N 45°52' W 084°43'1 0.9
2014-Aug-09 10:33N 45°52' W 084°42'1010.0
2014-Aug-09 09:33N 45°51' W 084°28'1010.1
2014-Aug-09 08:33N 45°46' W 084°15'1010.2
2014-Aug-09 07:33N 45°40' W 084°03'  

Dump ship's entire track history